Flight Track Log - Related Links

Times and Time Zones

All times are in EDT time to prevent confusion due to time zone crossing. See the SKW6345 flight status page for this flight to view local times or setup timezone preferences in your user account.

Time Position Orientation Groundspeed Altitude Reporting Facility
EDT Latitude Longitude Course Direction KTS MPH feet Rate Location/Type
Fri 01:50:19 PM 45.7011 -111.2106 237° Southwest 227 261 9,200  Level Salt Lake Center
Fri 01:51:00 PM 45.7433 -111.6781 288° West  Level FlightAware Approximate
Fri 01:51:21 PM 45.7089 -111.3103 276° West 244 281 11,000  Level Salt Lake Center
Fri 01:52:00 PM 45.7745 -111.8185 288° West  Level FlightAware Approximate
Fri 01:52:23 PM 45.7217 -111.4233 279° West 269 310 13,300  Level Salt Lake Center
Fri 01:53:00 PM 45.8063 -111.9586 290° West  Level FlightAware Approximate
Fri 01:53:25 PM 45.7353 -111.5394 280° West 289 333 15,900  Level Salt Lake Center
Fri 01:54:00 PM 45.8386 -112.0985 283° West  Level FlightAware Approximate
Fri 01:54:27 PM 45.7503 -111.6553 281° West 294 338 18,000  Level Salt Lake Center
Fri 01:55:29 PM 45.7756 -111.7775 287° West 314 361 19,300 1,161 Climbing Salt Lake Center
Fri 01:56:31 PM 45.7472 -111.8986 252° West 329 379 20,400 1,016 Climbing Salt Lake Center
Fri 01:57:33 PM 45.6811 -112.0375 236° Southwest 350 403 21,400 864 Climbing Salt Lake Center
Fri 01:58:36 PM 45.6228 -112.1583 235° Southwest 367 422 22,200 768 Climbing Salt Lake Center
Fri 01:59:38 PM 45.5628 -112.2822 235° Southwest 377 434 23,000 919 Climbing Salt Lake Center
Fri 02:00:40 PM 45.5017 -112.4078 235° Southwest 384 442 24,100 1,016 Climbing Salt Lake Center
Fri 02:01:42 PM 45.4408 -112.5342 236° Southwest 387 445 25,100 968 Climbing Salt Lake Center
Fri 02:02:44 PM 45.3792 -112.6597 235° Southwest 387 445 26,100 968 Climbing Salt Lake Center
Fri 02:03:46 PM 45.3053 -112.8122 235° Southwest 391 450 27,100 774 Climbing Salt Lake Center
Fri 02:04:48 PM 45.2450 -112.9328 235° Southwest 392 451 27,700 581 Climbing Salt Lake Center
Fri 02:05:50 PM 45.1694 -113.0731 233° Southwest 398 458 28,300 581 Climbing Salt Lake Center
Fri 02:06:52 PM 45.0881 -113.1764 222° Southwest 408 470 28,900 726 Climbing Salt Lake Center
Fri 02:07:54 PM 44.9969 -113.2978 223° Southwest 406 467 29,800 871 Climbing Salt Lake Center
Fri 02:08:56 PM 44.9214 -113.3983 223° Southwest 394 453 30,700 919 Climbing Salt Lake Center
Fri 02:09:58 PM 44.8344 -113.5125 223° Southwest 384 442 31,700 629 Climbing Salt Lake Center
Fri 02:11:00 PM 44.7600 -113.6067 222° Southwest 380 437 32,000 145 Climbing Salt Lake Center
Fri 02:12:02 PM 44.6864 -113.7044 223° Southwest 381 438 32,000  Level Salt Lake Center
Fri 02:13:04 PM 44.5961 -113.8197 222° Southwest 389 448 32,000  Level Salt Lake Center
Fri 02:14:06 PM 44.5169 -113.9197 222° Southwest 397 457 32,000  Level Salt Lake Center
Fri 02:15:08 PM 44.4261 -114.0369 223° Southwest 399 459 32,000  Level Salt Lake Center
Fri 02:16:10 PM 44.3492 -114.1378 223° Southwest 398 458 32,000  Level Salt Lake Center
Fri 02:17:12 PM 44.2581 -114.2547 223° Southwest 397 457 32,000  Level Salt Lake Center
Fri 02:18:14 PM 44.1744 -114.3553 221° Southwest 405 466 32,000  Level Salt Lake Center
Fri 02:19:16 PM 44.0833 -114.4731 223° Southwest 401 461 32,000  Level Salt Lake Center
Fri 02:20:18 PM 44.0036 -114.5733 222° Southwest 404 465 32,000  Level Salt Lake Center
Fri 02:21:20 PM 43.9139 -114.6864 222° Southwest 404 465 32,000  Level Salt Lake Center
Fri 02:22:22 PM 43.8267 -114.7950 222° Southwest 406 467 32,000  Level Salt Lake Center
Fri 02:23:24 PM 43.7389 -114.9039 222° Southwest 407 468 32,000  Level Salt Lake Center
Fri 02:24:26 PM 43.6508 -115.0125 222° Southwest 406 467 32,000  Level Salt Lake Center
Fri 02:25:28 PM 43.5625 -115.1219 222° Southwest 409 471 32,000  Level Salt Lake Center
Fri 02:26:30 PM 43.4744 -115.2297 222° Southwest 408 470 32,000  Level Salt Lake Center
Fri 02:27:32 PM 43.3925 -115.3292 221° Southwest 408 470 32,000  Level Salt Lake Center
Fri 02:28:34 PM 43.3036 -115.4369 221° Southwest 407 468 32,000  Level Salt Lake Center
Fri 02:29:36 PM 43.2142 -115.5453 221° Southwest 409 471 32,000  Level Salt Lake Center
Fri 02:30:38 PM 43.1244 -115.6522 221° Southwest 411 473 32,000  Level Salt Lake Center
Fri 02:31:40 PM 43.0333 -115.7611 221° Southwest 411 473 32,000  Level Salt Lake Center
Fri 02:32:42 PM 42.9483 -115.8614 221° Southwest 413 475 32,000  Level Salt Lake Center
Fri 02:33:45 PM 42.8592 -115.9694 222° Southwest 407 468 32,000  Level Salt Lake Center
Fri 02:34:47 PM 42.7694 -116.0756 221° Southwest 410 472 32,000  Level Salt Lake Center
Fri 02:35:49 PM 42.6789 -116.1814 221° Southwest 409 471 32,000  Level Salt Lake Center
Fri 02:36:51 PM 42.5894 -116.2869 221° Southwest 409 471 32,000  Level Salt Lake Center
Fri 02:37:53 PM 42.5056 -116.3850 221° Southwest 411 473 32,000  Level Salt Lake Center
Fri 02:38:55 PM 42.4158 -116.4897 230° Southwest 409 471 32,000  Level Salt Lake Center
Fri 02:39:00 PM 42.4098 -116.4881 230° Southwest  Level FlightAware Approximate
Fri 02:39:57 PM 42.3381 -116.6092 229° Southwest 407 468 32,000  Level Salt Lake Center
Fri 02:40:59 PM 42.2661 -116.7267 230° Southwest 406 467 32,000  Level Salt Lake Center
Fri 02:42:01 PM 42.1856 -116.8578 230° Southwest 407 468 32,000  Level Salt Lake Center
Fri 02:43:03 PM 42.1158 -116.9700 230° Southwest 409 471 32,000  Level Salt Lake Center
Fri 02:45:00 PM 41.9842 -117.1710 231° Southwest  Level FlightAware Approximate
Fri 02:46:01 PM 41.8958 -117.3194 231° Southwest 409 471 32,000  Level Oakland Center
Fri 02:47:03 PM 41.8269 -117.4292 230° Southwest 405 466 32,000  Level Oakland Center
Fri 02:48:05 PM 41.7461 -117.5622 231° Southwest 410 472 32,000  Level Oakland Center
Fri 02:49:06 PM 41.6758 -117.6722 229° Southwest 409 471 32,000  Level Oakland Center
Fri 02:50:08 PM 41.6053 -117.7831 230° Southwest 408 470 32,000  Level Oakland Center
Fri 02:51:10 PM 41.5236 -117.9108 230° Southwest 406 467 32,000  Level Oakland Center
Fri 02:52:12 PM 41.4539 -118.0211 230° Southwest 406 467 32,000  Level Oakland Center
Fri 02:53:14 PM 41.3711 -118.1503 230° Southwest 410 472 32,000  Level Oakland Center
Fri 02:54:16 PM 41.3008 -118.2586 229° Southwest 408 470 32,000  Level Oakland Center
Fri 02:55:17 PM 41.2186 -118.3872 230° Southwest 409 471 32,000  Level Oakland Center
Fri 02:56:19 PM 41.1461 -118.4958 228° Southwest 410 472 32,000  Level Oakland Center
Fri 02:57:21 PM 41.0628 -118.6236 229° Southwest 409 471 32,000  Level Oakland Center
Fri 02:58:23 PM 40.9906 -118.7342 229° Southwest 415 478 32,000  Level Oakland Center
Fri 02:59:25 PM 40.9061 -118.8619 229° Southwest 414 476 32,000  Level Oakland Center
Fri 03:00:26 PM 40.8336 -118.9728 229° Southwest 417 480 32,000  Level Oakland Center
Fri 03:01:28 PM 40.7525 -119.0936 228° Southwest 417 480 32,000  Level Oakland Center
Fri 03:02:30 PM 40.6758 -119.2089 229° Southwest 419 482 32,000  Level Oakland Center
Fri 03:03:32 PM 40.5986 -119.3222 228° Southwest 417 480 32,000  Level Oakland Center
Fri 03:04:34 PM 40.5228 -119.4375 229° Southwest 418 481 32,000  Level Oakland Center
Fri 03:05:35 PM 40.4456 -119.5522 229° Southwest 419 482 32,000  Level Oakland Center
Fri 03:06:37 PM 40.3517 -119.6894 228° Southwest 421 484 32,000  Level Oakland Center
Fri 03:07:39 PM 40.2736 -119.8036 228° Southwest 423 487 32,000  Level Oakland Center
Fri 03:08:41 PM 40.1983 -119.9156 229° Southwest 416 479 32,000  Level Oakland Center
Fri 03:09:43 PM 40.1208 -120.0278 228° Southwest 417 480 32,000  Level Oakland Center
Fri 03:10:45 PM 40.0425 -120.1411 228° Southwest 419 482 32,000  Level Oakland Center
Fri 03:11:46 PM 39.9608 -120.2606 228° Southwest 414 476 32,000  Level Oakland Center
Fri 03:12:48 PM 39.8833 -120.3703 227° Southwest 412 474 32,000  Level Oakland Center
Fri 03:13:50 PM 39.8072 -120.4822 229° Southwest 413 475 32,000  Level Oakland Center
Fri 03:14:52 PM 39.7297 -120.5900 227° Southwest 410 472 32,000  Level Oakland Center
Fri 03:15:54 PM 39.6386 -120.7253 229° Southwest 414 476 32,000  Level Oakland Center
Fri 03:16:55 PM 39.5608 -120.8322 227° Southwest 411 473 32,000  Level Oakland Center
Fri 03:17:57 PM 39.4822 -120.9417 227° Southwest 414 476 32,000  Level Oakland Center
Fri 03:18:59 PM 39.4036 -121.0544 228° Southwest 422 486 32,000  Level Oakland Center
Fri 03:20:01 PM 39.3258 -121.1647 228° Southwest 418 481 32,000  Level Oakland Center
Fri 03:21:03 PM 39.2469 -121.2742 227° Southwest 418 481 32,000  Level Oakland Center
Fri 03:22:05 PM 39.1517 -121.4083 228° Southwest 425 489 32,000  Level Oakland Center
Fri 03:23:06 PM 39.0722 -121.5186 227° Southwest 424 488 32,000  Level Oakland Center
Fri 03:24:08 PM 38.9925 -121.6300 227° Southwest 425 489 32,000  Level Oakland Center
Fri 03:25:10 PM 38.9122 -121.7411 227° Southwest 426 490 32,000  Level Oakland Center
Fri 03:26:11 PM 38.8317 -121.8517 227° Southwest 428 493 32,000  Level Oakland Center
Fri 03:27:13 PM 38.7506 -121.9625 227° Southwest 428 493 32,000  Level Oakland Center
Fri 03:28:15 PM 38.6589 -122.0867 227° Southwest 424 488 32,000  Level Oakland Center
Fri 03:29:17 PM 38.5781 -122.1975 227° Southwest 425 489 32,000 -1,268 Level Oakland Center
Fri 03:30:18 PM 38.4964 -122.3075 227° Southwest 428 493 29,400 -2,732 Descending Oakland Center
Fri 03:31:20 PM 38.4144 -122.4206 227° Southwest 434 499 26,400 -3,194 Descending Oakland Center
Fri 03:32:22 PM 38.3175 -122.5508 227° Southwest 425 489 22,800 -3,268 Descending Oakland Center
Fri 03:33:23 PM 38.2311 -122.6436 220° Southwest 417 480 19,700 -3,415 Descending Oakland Center
Fri 03:34:25 PM 38.1156 -122.6592 186° South 420 483 15,800 -3,774 Descending Oakland Center
Fri 03:35:27 PM 38.0033 -122.6675 183° South 412 474 11,900 -2,341 Descending Oakland Center
Fri 03:36:28 PM 37.9031 -122.6636 178° South 387 445 11,000 -439 Descending Oakland Center
Fri 03:37:30 PM 37.8047 -122.5719 144° Southeast 384 442 11,000  Level Oakland Center
Fri 03:38:32 PM 37.7358 -122.4994 140° Southeast 332 382 11,000  Level Oakland Center
Fri 03:39:33 PM 37.6781 -122.4383 140° Southeast 280 322 11,000 49 Level Oakland Center
Fri 03:40:35 PM 37.6197 -122.3772 140° Southeast 273 314 11,100 -194 Climbing Oakland Center
Fri 03:41:37 PM 37.5506 -122.3303 152° Southeast 283 326 10,600 -1,073 Descending Oakland Center
Fri 03:42:38 PM 37.4667 -122.2833 156° South 265 305 8,900 -1,475 Descending Northern Cal TRACON
Fri 03:43:39 PM 37.4167 -122.2333 142° Southeast 262 302 7,600 -1,190 Descending Northern Cal TRACON
Fri 03:44:39 PM 37.3833 -122.1500 117° Southeast 244 281 6,500 -750 Descending Northern Cal TRACON
Fri 03:45:39 PM 37.4167 -122.1000 50° Northeast 237 273 6,100 -850 Descending Northern Cal TRACON
Fri 03:46:39 PM 37.4833 -122.1000 360° North 217 250 4,800 -1,200 Descending Northern Cal TRACON
Fri 03:47:39 PM 37.5167 -122.1667 302° West 203 234 3,700 -1,100 Descending Northern Cal TRACON

Login

Don't have an account? Register now (free) for customized features, flight alerts, and more!